N2586X KBHM-KBHM
Flight info
| Callsign | N2586X |
|---|---|
| Flight time | 0h 4m |
| Altitude | |
| Route | PATTERN WORK |
| Aircraft | PA28/L-DOV/C |
Departure
| Time | 2026-04-17 00:18 |
|---|---|
| Airport | Birmingham-Shuttlesworth International Airport (KBHM) |
Arrival
| Time | 2026-04-17 00:23 |
|---|---|
| Airport | Birmingham-Shuttlesworth International Airport (KBHM) |
| Time | Latitude | Longitude | Altitude | Speed | Heading |
|---|---|---|---|---|---|
| 2026-04-17 00:12 | 33.56642 | -86.74245 | 671 ft | 2 kts | 286° |
| 2026-04-17 00:12 | 33.56632 | -86.74262 | 671 ft | 2 kts | 221° |
| 2026-04-17 00:12 | 33.56628 | -86.74265 | 671 ft | 0 kts | 221° |
| 2026-04-17 00:13 | 33.56627 | -86.74266 | 671 ft | 2 kts | 233° |
| 2026-04-17 00:13 | 33.56608 | -86.74314 | 671 ft | 7 kts | 241° |
| 2026-04-17 00:13 | 33.56620 | -86.74362 | 671 ft | 6 kts | 333° |
| 2026-04-17 00:13 | 33.56641 | -86.74397 | 671 ft | 4 kts | 287° |
| 2026-04-17 00:14 | 33.56645 | -86.74425 | 671 ft | 2 kts | 266° |
| 2026-04-17 00:14 | 33.56645 | -86.74430 | 671 ft | 1 kts | 262° |
| 2026-04-17 00:14 | 33.56640 | -86.74509 | 671 ft | 13 kts | 270° |
| 2026-04-17 00:14 | 33.56670 | -86.74587 | 671 ft | 11 kts | 350° |
| 2026-04-17 00:15 | 33.56752 | -86.74587 | 671 ft | 13 kts | 19° |
| 2026-04-17 00:15 | 33.56811 | -86.74498 | 671 ft | 14 kts | 55° |
| 2026-04-17 00:15 | 33.56877 | -86.74385 | 671 ft | 19 kts | 55° |
| 2026-04-17 00:15 | 33.56955 | -86.74246 | 671 ft | 21 kts | 55° |
| 2026-04-17 00:16 | 33.57039 | -86.74102 | 670 ft | 21 kts | 55° |
| 2026-04-17 00:16 | 33.57121 | -86.73959 | 670 ft | 21 kts | 55° |
| 2026-04-17 00:16 | 33.57189 | -86.73845 | 670 ft | 12 kts | 39° |
| 2026-04-17 00:16 | 33.57259 | -86.73853 | 670 ft | 10 kts | 323° |
| 2026-04-17 00:17 | 33.57283 | -86.73872 | 670 ft | 7 kts | 324° |
| 2026-04-17 00:17 | 33.57319 | -86.73950 | 670 ft | 14 kts | 260° |
| 2026-04-17 00:17 | 33.57235 | -86.74112 | 670 ft | 41 kts | 236° |
| 2026-04-17 00:17 | 33.56991 | -86.74532 | 698 ft | 75 kts | 234° |
| 2026-04-17 00:18 | 33.56708 | -86.75044 | 935 ft | 74 kts | 238° |
| 2026-04-17 00:18 | 33.56438 | -86.75590 | 1107 ft | 79 kts | 240° |
| 2026-04-17 00:18 | 33.56200 | -86.76151 | 1393 ft | 73 kts | 239° |
| 2026-04-17 00:18 | 33.55756 | -86.76391 | 1511 ft | 85 kts | 169° |
| 2026-04-17 00:19 | 33.55231 | -86.75954 | 1593 ft | 96 kts | 148° |
| 2026-04-17 00:19 | 33.54706 | -86.75441 | 1664 ft | 100 kts | 136° |
| 2026-04-17 00:19 | 33.54564 | -86.74590 | 1640 ft | 114 kts | 73° |
| 2026-04-17 00:19 | 33.55010 | -86.73807 | 1637 ft | 113 kts | 52° |
| 2026-04-17 00:20 | 33.55471 | -86.73120 | 1754 ft | 99 kts | 50° |
| 2026-04-17 00:20 | 33.55878 | -86.72445 | 1712 ft | 100 kts | 53° |
| 2026-04-17 00:20 | 33.56291 | -86.71768 | 1646 ft | 103 kts | 50° |
| 2026-04-17 00:20 | 33.56708 | -86.71123 | 1704 ft | 97 kts | 52° |
| 2026-04-17 00:21 | 33.57270 | -86.70738 | 1611 ft | 100 kts | 354° |
| 2026-04-17 00:21 | 33.57852 | -86.71025 | 1488 ft | 83 kts | 323° |
| 2026-04-17 00:21 | 33.58306 | -86.71451 | 1335 ft | 84 kts | 309° |
| 2026-04-17 00:21 | 33.58395 | -86.72063 | 1175 ft | 79 kts | 240° |
| 2026-04-17 00:22 | 33.57799 | -86.73126 | 943 ft | 75 kts | 236° |
| 2026-04-17 00:22 | 33.57501 | -86.73639 | 832 ft | 75 kts | 236° |
| 2026-04-17 00:22 | 33.57216 | -86.74143 | 714 ft | 70 kts | 236° |
| 2026-04-17 00:23 | 33.56984 | -86.74550 | 672 ft | 48 kts | 236° |
| 2026-04-17 00:23 | 33.56772 | -86.74920 | 673 ft | 71 kts | 235° |
| 2026-04-17 00:23 | 33.56490 | -86.75424 | 917 ft | 68 kts | 237° |
| 2026-04-17 00:23 | 33.56209 | -86.75902 | 1117 ft | 71 kts | 230° |
| 2026-04-17 00:24 | 33.55882 | -86.76324 | 1369 ft | 71 kts | 200° |
| 2026-04-17 00:24 | 33.55405 | -86.76076 | 1495 ft | 86 kts | 142° |
| 2026-04-17 00:24 | 33.55062 | -86.75471 | 1619 ft | 103 kts | 97° |
| 2026-04-17 00:24 | 33.55353 | -86.74654 | 1728 ft | 109 kts | 56° |
| 2026-04-17 00:25 | 33.55803 | -86.73844 | 1739 ft | 124 kts | 55° |
| 2026-04-17 00:25 | 33.56282 | -86.72961 | 1717 ft | 132 kts | 56° |
| 2026-04-17 00:25 | 33.56806 | -86.72058 | 1672 ft | 132 kts | 52° |
| 2026-04-17 00:25 | 33.57509 | -86.71426 | 1577 ft | 126 kts | 4° |
| 2026-04-17 00:26 | 33.58277 | -86.71766 | 1416 ft | 118 kts | 316° |
| 2026-04-17 00:26 | 33.58214 | -86.72464 | 1093 ft | 92 kts | 235° |
| 2026-04-17 00:26 | 33.57822 | -86.73033 | 912 ft | 83 kts | 235° |
| 2026-04-17 00:26 | 33.57536 | -86.73585 | 822 ft | 77 kts | 235° |
| 2026-04-17 00:27 | 33.57241 | -86.74097 | 702 ft | 69 kts | 236° |
| 2026-04-17 00:27 | 33.57078 | -86.74376 | 675 ft | 53 kts | 237° |
| 2026-04-17 00:27 | 33.56892 | -86.74711 | 673 ft | 56 kts | 235° |
| 2026-04-17 00:27 | 33.56615 | -86.75196 | 777 ft | 75 kts | 236° |
| 2026-04-17 00:28 | 33.56325 | -86.75703 | 992 ft | 78 kts | 233° |
| 2026-04-17 00:28 | 33.56050 | -86.76274 | 1236 ft | 77 kts | 238° |
| 2026-04-17 00:28 | 33.55631 | -86.76704 | 1336 ft | 92 kts | 191° |
| 2026-04-17 00:28 | 33.55034 | -86.76388 | 1543 ft | 102 kts | 144° |
| 2026-04-17 00:29 | 33.54525 | -86.75767 | 1668 ft | 111 kts | 120° |
| 2026-04-17 00:29 | 33.54627 | -86.74864 | 1747 ft | 120 kts | 56° |
| 2026-04-17 00:29 | 33.55159 | -86.74053 | 1713 ft | 130 kts | 50° |
| 2026-04-17 00:29 | 33.55724 | -86.73161 | 1680 ft | 135 kts | 51° |
| 2026-04-17 00:30 | 33.56280 | -86.72265 | 1693 ft | 133 kts | 52° |